Destruction Bay, Canada
Current Conditions -  °F | °C
As of 7:00 PM on Tuesday 21 Oct 2014 (Local Time) from CYDB Reporting Station
Scattered Clouds Scattered Clouds  
Wind Chill: 28°   Ceiling: Unl
Heat Index: 28°   Visibility: 9mi
Dew Point: 27°   Wind: 2mph
Humidity: 93%   Direction: 270°W
Pressure: 29.3"   Gusts: NA
Location:  61.25°N, 138.8°W
Report Text: CYDB 220200Z AUTO 27002KT 9SM SCT160 SCT190 SCT210 M02/M03 A2930 RMK SLP968
Loading
Personal Weather Stations






























Interactive Weather Map
Tropical Storm Tracking
New forecast layout! Learn more

10-Day Weather Forecast

Advertisements
Track Severe Weather on mobile